sensor_id;sensor_type;location;lat;lon;timestamp;P1;durP1;ratioP1;P2;durP2;ratioP2
67995;SDS011;54772;53.544;49.324;2023-12-29T00:01:21;4.97;;;2.40;;
67995;SDS011;54772;53.544;49.324;2023-12-29T00:04:08;4.82;;;2.90;;
67995;SDS011;54772;53.544;49.324;2023-12-29T00:06:55;4.22;;;2.67;;
67995;SDS011;54772;53.544;49.324;2023-12-29T00:09:42;3.90;;;2.60;;
67995;SDS011;54772;53.544;49.324;2023-12-29T00:12:28;4.32;;;2.70;;
67995;SDS011;54772;53.544;49.324;2023-12-29T00:15:17;3.97;;;2.33;;
67995;SDS011;54772;53.544;49.324;2023-12-29T00:18:04;3.15;;;2.55;;
67995;SDS011;54772;53.544;49.324;2023-12-29T00:20:51;5.37;;;2.87;;
67995;SDS011;54772;53.544;49.324;2023-12-29T00:23:37;4.62;;;2.75;;
67995;SDS011;54772;53.544;49.324;2023-12-29T00:26:25;4.20;;;2.42;;
67995;SDS011;54772;53.544;49.324;2023-12-29T00:29:13;4.28;;;2.72;;
67995;SDS011;54772;53.544;49.324;2023-12-29T00:32:00;3.92;;;2.60;;
67995;SDS011;54772;53.544;49.324;2023-12-29T00:37:33;4.37;;;2.30;;
67995;SDS011;54772;53.544;49.324;2023-12-29T00:40:20;2.40;;;1.83;;
67995;SDS011;54772;53.544;49.324;2023-12-29T00:45:53;2.67;;;2.05;;
67995;SDS011;54772;53.544;49.324;2023-12-29T00:48:40;3.87;;;2.10;;
67995;SDS011;54772;53.544;49.324;2023-12-29T00:51:27;3.17;;;2.00;;
67995;SDS011;54772;53.544;49.324;2023-12-29T00:54:13;3.90;;;2.65;;
67995;SDS011;54772;53.544;49.324;2023-12-29T00:57:00;3.97;;;2.58;;
67995;SDS011;54772;53.544;49.324;2023-12-29T00:59:47;4.20;;;2.60;;
67995;SDS011;54772;53.544;49.324;2023-12-29T01:02:34;3.30;;;2.40;;
67995;SDS011;54772;53.544;49.324;2023-12-29T01:05:21;3.78;;;2.33;;
67995;SDS011;54772;53.544;49.324;2023-12-29T01:08:08;2.20;;;1.98;;
67995;SDS011;54772;53.544;49.324;2023-12-29T01:10:55;2.80;;;2.10;;
67995;SDS011;54772;53.544;49.324;2023-12-29T01:13:42;3.33;;;2.40;;
67995;SDS011;54772;53.544;49.324;2023-12-29T01:16:29;5.40;;;2.45;;
67995;SDS011;54772;53.544;49.324;2023-12-29T01:19:16;3.80;;;2.45;;
67995;SDS011;54772;53.544;49.324;2023-12-29T01:22:03;4.90;;;2.35;;
67995;SDS011;54772;53.544;49.324;2023-12-29T01:24:49;4.00;;;2.17;;
67995;SDS011;54772;53.544;49.324;2023-12-29T01:27:37;4.05;;;2.28;;
67995;SDS011;54772;53.544;49.324;2023-12-29T01:30:24;2.90;;;1.98;;
67995;SDS011;54772;53.544;49.324;2023-12-29T01:33:11;3.72;;;2.22;;
67995;SDS011;54772;53.544;49.324;2023-12-29T01:35:57;3.17;;;2.33;;
67995;SDS011;54772;53.544;49.324;2023-12-29T01:38:45;3.90;;;2.40;;
67995;SDS011;54772;53.544;49.324;2023-12-29T01:41:31;3.17;;;2.15;;
67995;SDS011;54772;53.544;49.324;2023-12-29T01:44:19;2.12;;;1.92;;
67995;SDS011;54772;53.544;49.324;2023-12-29T01:47:15;3.53;;;2.42;;
67995;SDS011;54772;53.544;49.324;2023-12-29T01:50:02;4.12;;;2.50;;
67995;SDS011;54772;53.544;49.324;2023-12-29T01:55:36;3.53;;;2.30;;
67995;SDS011;54772;53.544;49.324;2023-12-29T01:58:45;2.58;;;1.85;;
67995;SDS011;54772;53.544;49.324;2023-12-29T02:01:36;3.10;;;2.20;;
67995;SDS011;54772;53.544;49.324;2023-12-29T02:04:27;3.42;;;2.50;;
67995;SDS011;54772;53.544;49.324;2023-12-29T02:07:14;3.78;;;2.65;;
67995;SDS011;54772;53.544;49.324;2023-12-29T02:09:58;3.37;;;2.42;;
67995;SDS011;54772;53.544;49.324;2023-12-29T02:12:47;4.43;;;2.55;;
67995;SDS011;54772;53.544;49.324;2023-12-29T02:15:34;4.00;;;2.60;;
67995;SDS011;54772;53.544;49.324;2023-12-29T02:18:23;4.07;;;2.55;;
67995;SDS011;54772;53.544;49.324;2023-12-29T02:21:10;3.83;;;2.72;;
67995;SDS011;54772;53.544;49.324;2023-12-29T02:23:58;3.35;;;2.35;;
67995;SDS011;54772;53.544;49.324;2023-12-29T02:26:46;4.82;;;2.97;;
67995;SDS011;54772;53.544;49.324;2023-12-29T02:29:35;3.70;;;2.47;;
67995;SDS011;54772;53.544;49.324;2023-12-29T02:32:26;3.97;;;2.40;;
67995;SDS011;54772;53.544;49.324;2023-12-29T02:35:14;3.75;;;2.70;;
67995;SDS011;54772;53.544;49.324;2023-12-29T02:38:06;3.80;;;2.58;;
67995;SDS011;54772;53.544;49.324;2023-12-29T02:40:54;3.12;;;2.33;;
67995;SDS011;54772;53.544;49.324;2023-12-29T02:43:42;6.05;;;2.70;;
67995;SDS011;54772;53.544;49.324;2023-12-29T02:49:11;4.05;;;2.70;;
67995;SDS011;54772;53.544;49.324;2023-12-29T02:51:59;3.87;;;2.87;;
67995;SDS011;54772;53.544;49.324;2023-12-29T02:54:46;4.65;;;2.70;;
67995;SDS011;54772;53.544;49.324;2023-12-29T02:57:32;4.18;;;2.65;;
67995;SDS011;54772;53.544;49.324;2023-12-29T03:00:19;3.53;;;2.47;;
67995;SDS011;54772;53.544;49.324;2023-12-29T03:03:07;4.10;;;2.67;;
67995;SDS011;54772;53.544;49.324;2023-12-29T03:05:53;4.28;;;2.87;;
67995;SDS011;54772;53.544;49.324;2023-12-29T03:08:40;3.45;;;2.30;;
67995;SDS011;54772;53.544;49.324;2023-12-29T03:11:26;3.70;;;2.53;;
67995;SDS011;54772;53.544;49.324;2023-12-29T03:14:14;3.60;;;2.33;;
67995;SDS011;54772;53.544;49.324;2023-12-29T03:17:01;4.70;;;2.62;;
67995;SDS011;54772;53.544;49.324;2023-12-29T03:19:48;3.30;;;2.40;;
67995;SDS011;54772;53.544;49.324;2023-12-29T03:22:35;3.28;;;2.50;;
67995;SDS011;54772;53.544;49.324;2023-12-29T03:25:22;4.50;;;2.30;;
67995;SDS011;54772;53.544;49.324;2023-12-29T03:28:09;4.62;;;2.50;;
67995;SDS011;54772;53.544;49.324;2023-12-29T03:30:55;3.87;;;2.67;;
67995;SDS011;54772;53.544;49.324;2023-12-29T03:33:42;4.43;;;3.08;;
67995;SDS011;54772;53.544;49.324;2023-12-29T03:36:33;4.15;;;2.65;;
67995;SDS011;54772;53.544;49.324;2023-12-29T03:39:20;5.68;;;3.08;;
67995;SDS011;54772;53.544;49.324;2023-12-29T03:42:09;4.68;;;2.80;;
67995;SDS011;54772;53.544;49.324;2023-12-29T03:44:53;3.97;;;2.70;;
67995;SDS011;54772;53.544;49.324;2023-12-29T03:47:41;3.92;;;2.75;;
67995;SDS011;54772;53.544;49.324;2023-12-29T03:50:27;4.75;;;3.03;;
67995;SDS011;54772;53.544;49.324;2023-12-29T03:53:14;5.47;;;3.00;;
67995;SDS011;54772;53.544;49.324;2023-12-29T03:56:07;4.15;;;3.05;;
67995;SDS011;54772;53.544;49.324;2023-12-29T03:58:58;5.30;;;3.55;;
67995;SDS011;54772;53.544;49.324;2023-12-29T04:04:31;4.28;;;3.28;;
67995;SDS011;54772;53.544;49.324;2023-12-29T04:07:21;4.72;;;3.37;;
67995;SDS011;54772;53.544;49.324;2023-12-29T04:10:08;4.87;;;3.03;;
67995;SDS011;54772;53.544;49.324;2023-12-29T04:12:55;4.57;;;2.87;;
67995;SDS011;54772;53.544;49.324;2023-12-29T04:15:42;4.05;;;3.00;;
67995;SDS011;54772;53.544;49.324;2023-12-29T04:18:29;4.80;;;3.10;;
67995;SDS011;54772;53.544;49.324;2023-12-29T04:21:16;6.00;;;3.30;;
67995;SDS011;54772;53.544;49.324;2023-12-29T04:24:02;4.62;;;2.95;;
67995;SDS011;54772;53.544;49.324;2023-12-29T04:26:49;4.35;;;2.55;;
67995;SDS011;54772;53.544;49.324;2023-12-29T04:29:36;3.55;;;2.45;;
67995;SDS011;54772;53.544;49.324;2023-12-29T04:32:23;4.20;;;2.92;;
67995;SDS011;54772;53.544;49.324;2023-12-29T04:35:10;2.83;;;2.03;;
67995;SDS011;54772;53.544;49.324;2023-12-29T04:38:00;2.60;;;1.85;;
67995;SDS011;54772;53.544;49.324;2023-12-29T04:40:47;4.57;;;2.50;;
67995;SDS011;54772;53.544;49.324;2023-12-29T04:45:58;4.62;;;2.70;;
67995;SDS011;54772;53.544;49.324;2023-12-29T04:48:47;4.55;;;2.22;;
67995;SDS011;54772;53.544;49.324;2023-12-29T04:54:20;4.80;;;2.83;;
67995;SDS011;54772;53.544;49.324;2023-12-29T04:57:07;4.53;;;2.90;;
67995;SDS011;54772;53.544;49.324;2023-12-29T04:59:54;4.43;;;2.70;;
67995;SDS011;54772;53.544;49.324;2023-12-29T05:02:40;4.93;;;3.20;;
67995;SDS011;54772;53.544;49.324;2023-12-29T05:05:27;4.28;;;2.72;;
67995;SDS011;54772;53.544;49.324;2023-12-29T05:08:14;7.32;;;3.10;;
67995;SDS011;54772;53.544;49.324;2023-12-29T05:11:01;3.30;;;2.60;;
67995;SDS011;54772;53.544;49.324;2023-12-29T05:13:47;5.25;;;3.50;;
67995;SDS011;54772;53.544;49.324;2023-12-29T05:16:34;4.57;;;2.83;;
67995;SDS011;54772;53.544;49.324;2023-12-29T05:19:21;6.22;;;2.70;;
67995;SDS011;54772;53.544;49.324;2023-12-29T05:22:08;4.62;;;2.60;;
67995;SDS011;54772;53.544;49.324;2023-12-29T05:25:19;4.30;;;2.78;;
67995;SDS011;54772;53.544;49.324;2023-12-29T05:28:07;5.47;;;2.90;;
67995;SDS011;54772;53.544;49.324;2023-12-29T05:30:54;4.03;;;2.45;;
67995;SDS011;54772;53.544;49.324;2023-12-29T05:33:39;3.58;;;2.28;;
67995;SDS011;54772;53.544;49.324;2023-12-29T05:36:26;4.45;;;3.00;;
67995;SDS011;54772;53.544;49.324;2023-12-29T05:39:13;3.60;;;2.70;;
67995;SDS011;54772;53.544;49.324;2023-12-29T05:41:59;3.97;;;2.50;;
67995;SDS011;54772;53.544;49.324;2023-12-29T05:44:46;3.53;;;2.40;;
67995;SDS011;54772;53.544;49.324;2023-12-29T05:47:33;4.45;;;3.22;;
67995;SDS011;54772;53.544;49.324;2023-12-29T05:50:20;4.30;;;3.03;;
67995;SDS011;54772;53.544;49.324;2023-12-29T05:53:07;4.53;;;2.87;;
67995;SDS011;54772;53.544;49.324;2023-12-29T05:55:54;4.25;;;2.70;;
67995;SDS011;54772;53.544;49.324;2023-12-29T05:58:41;3.55;;;2.40;;
67995;SDS011;54772;53.544;49.324;2023-12-29T06:01:28;5.40;;;2.87;;
67995;SDS011;54772;53.544;49.324;2023-12-29T06:04:15;4.03;;;2.67;;
67995;SDS011;54772;53.544;49.324;2023-12-29T06:07:01;4.37;;;2.70;;
67995;SDS011;54772;53.544;49.324;2023-12-29T06:09:49;4.80;;;2.72;;
67995;SDS011;54772;53.544;49.324;2023-12-29T06:12:35;4.28;;;3.00;;
67995;SDS011;54772;53.544;49.324;2023-12-29T06:15:23;3.53;;;2.45;;
67995;SDS011;54772;53.544;49.324;2023-12-29T06:18:09;4.62;;;2.30;;
67995;SDS011;54772;53.544;49.324;2023-12-29T06:20:57;4.18;;;2.62;;
67995;SDS011;54772;53.544;49.324;2023-12-29T06:23:44;3.45;;;2.50;;
67995;SDS011;54772;53.544;49.324;2023-12-29T06:26:31;3.50;;;2.50;;
67995;SDS011;54772;53.544;49.324;2023-12-29T06:29:42;3.20;;;2.12;;
67995;SDS011;54772;53.544;49.324;2023-12-29T06:32:29;2.97;;;2.45;;
67995;SDS011;54772;53.544;49.324;2023-12-29T06:35:18;3.67;;;2.35;;
67995;SDS011;54772;53.544;49.324;2023-12-29T06:38:05;3.33;;;2.20;;
67995;SDS011;54772;53.544;49.324;2023-12-29T06:40:52;2.42;;;2.15;;
67995;SDS011;54772;53.544;49.324;2023-12-29T06:43:39;3.12;;;2.25;;
67995;SDS011;54772;53.544;49.324;2023-12-29T06:46:25;3.22;;;2.45;;
67995;SDS011;54772;53.544;49.324;2023-12-29T06:49:13;3.75;;;2.05;;
67995;SDS011;54772;53.544;49.324;2023-12-29T06:51:58;2.85;;;2.17;;
67995;SDS011;54772;53.544;49.324;2023-12-29T06:54:46;2.90;;;2.10;;
67995;SDS011;54772;53.544;49.324;2023-12-29T06:57:33;2.03;;;1.80;;
67995;SDS011;54772;53.544;49.324;2023-12-29T07:00:19;3.55;;;2.30;;
67995;SDS011;54772;53.544;49.324;2023-12-29T07:03:06;3.40;;;2.60;;
67995;SDS011;54772;53.544;49.324;2023-12-29T07:05:53;3.35;;;2.25;;
67995;SDS011;54772;53.544;49.324;2023-12-29T07:11:27;3.33;;;2.33;;
67995;SDS011;54772;53.544;49.324;2023-12-29T07:14:16;3.37;;;2.40;;
67995;SDS011;54772;53.544;49.324;2023-12-29T07:17:01;3.47;;;2.60;;
67995;SDS011;54772;53.544;49.324;2023-12-29T07:19:48;4.12;;;2.60;;
67995;SDS011;54772;53.544;49.324;2023-12-29T07:22:35;3.87;;;3.15;;
67995;SDS011;54772;53.544;49.324;2023-12-29T07:25:22;3.15;;;2.47;;
67995;SDS011;54772;53.544;49.324;2023-12-29T07:28:09;3.20;;;2.22;;
67995;SDS011;54772;53.544;49.324;2023-12-29T07:30:55;3.22;;;2.28;;
67995;SDS011;54772;53.544;49.324;2023-12-29T07:33:42;3.25;;;2.28;;
67995;SDS011;54772;53.544;49.324;2023-12-29T07:36:28;3.65;;;2.28;;
67995;SDS011;54772;53.544;49.324;2023-12-29T07:39:15;4.37;;;2.45;;
67995;SDS011;54772;53.544;49.324;2023-12-29T07:42:05;3.58;;;2.80;;
67995;SDS011;54772;53.544;49.324;2023-12-29T07:44:52;3.12;;;2.10;;
67995;SDS011;54772;53.544;49.324;2023-12-29T07:47:42;4.10;;;2.45;;
67995;SDS011;54772;53.544;49.324;2023-12-29T07:53:15;3.67;;;2.20;;
67995;SDS011;54772;53.544;49.324;2023-12-29T07:56:02;3.75;;;2.35;;
67995;SDS011;54772;53.544;49.324;2023-12-29T07:58:49;3.53;;;2.50;;
67995;SDS011;54772;53.544;49.324;2023-12-29T08:01:36;3.60;;;2.20;;
67995;SDS011;54772;53.544;49.324;2023-12-29T08:04:23;2.83;;;1.98;;
67995;SDS011;54772;53.544;49.324;2023-12-29T08:07:10;3.62;;;2.28;;
67995;SDS011;54772;53.544;49.324;2023-12-29T08:09:57;2.95;;;2.45;;
67995;SDS011;54772;53.544;49.324;2023-12-29T08:15:31;3.60;;;2.70;;
67995;SDS011;54772;53.544;49.324;2023-12-29T08:18:18;3.92;;;2.53;;
67995;SDS011;54772;53.544;49.324;2023-12-29T08:21:05;3.37;;;2.20;;
67995;SDS011;54772;53.544;49.324;2023-12-29T08:23:52;3.47;;;2.60;;
67995;SDS011;54772;53.544;49.324;2023-12-29T08:26:45;3.17;;;2.45;;
67995;SDS011;54772;53.544;49.324;2023-12-29T08:29:32;3.12;;;2.45;;
67995;SDS011;54772;53.544;49.324;2023-12-29T08:32:20;3.15;;;2.30;;
67995;SDS011;54772;53.544;49.324;2023-12-29T08:35:07;4.55;;;2.72;;
67995;SDS011;54772;53.544;49.324;2023-12-29T08:40:40;4.10;;;2.87;;
67995;SDS011;54772;53.544;49.324;2023-12-29T08:43:27;2.97;;;2.08;;
67995;SDS011;54772;53.544;49.324;2023-12-29T08:46:14;3.05;;;2.30;;
67995;SDS011;54772;53.544;49.324;2023-12-29T08:49:01;3.92;;;2.50;;
67995;SDS011;54772;53.544;49.324;2023-12-29T08:51:45;3.17;;;1.87;;
67995;SDS011;54772;53.544;49.324;2023-12-29T08:54:33;4.85;;;3.40;;
67995;SDS011;54772;53.544;49.324;2023-12-29T08:57:19;5.43;;;2.83;;
67995;SDS011;54772;53.544;49.324;2023-12-29T09:00:06;3.92;;;2.37;;
67995;SDS011;54772;53.544;49.324;2023-12-29T09:02:54;4.53;;;2.58;;
67995;SDS011;54772;53.544;49.324;2023-12-29T09:05:41;3.58;;;2.25;;
67995;SDS011;54772;53.544;49.324;2023-12-29T09:08:28;3.62;;;2.50;;
67995;SDS011;54772;53.544;49.324;2023-12-29T09:11:15;4.28;;;2.55;;
67995;SDS011;54772;53.544;49.324;2023-12-29T09:14:01;5.00;;;3.00;;
67995;SDS011;54772;53.544;49.324;2023-12-29T09:16:48;4.03;;;2.40;;
67995;SDS011;54772;53.544;49.324;2023-12-29T09:19:36;4.05;;;2.80;;
67995;SDS011;54772;53.544;49.324;2023-12-29T09:22:23;4.30;;;2.50;;
67995;SDS011;54772;53.544;49.324;2023-12-29T09:25:09;2.53;;;1.87;;
67995;SDS011;54772;53.544;49.324;2023-12-29T09:27:56;2.47;;;2.00;;
67995;SDS011;54772;53.544;49.324;2023-12-29T09:30:43;3.62;;;2.45;;
67995;SDS011;54772;53.544;49.324;2023-12-29T09:33:30;4.22;;;2.60;;
67995;SDS011;54772;53.544;49.324;2023-12-29T09:36:16;3.47;;;2.50;;
67995;SDS011;54772;53.544;49.324;2023-12-29T09:39:03;4.90;;;2.40;;
67995;SDS011;54772;53.544;49.324;2023-12-29T09:41:55;3.92;;;2.25;;
67995;SDS011;54772;53.544;49.324;2023-12-29T09:44:49;3.20;;;2.47;;
67995;SDS011;54772;53.544;49.324;2023-12-29T09:47:37;3.67;;;2.20;;
67995;SDS011;54772;53.544;49.324;2023-12-29T09:50:25;3.05;;;2.50;;
67995;SDS011;54772;53.544;49.324;2023-12-29T09:53:12;3.65;;;2.33;;
67995;SDS011;54772;53.544;49.324;2023-12-29T09:56:00;3.70;;;2.28;;
67995;SDS011;54772;53.544;49.324;2023-12-29T09:58:48;2.87;;;2.20;;
67995;SDS011;54772;53.544;49.324;2023-12-29T10:01:37;4.22;;;2.50;;
67995;SDS011;54772;53.544;49.324;2023-12-29T10:04:25;3.05;;;2.25;;
67995;SDS011;54772;53.544;49.324;2023-12-29T10:07:18;4.25;;;2.62;;
67995;SDS011;54772;53.544;49.324;2023-12-29T10:10:13;3.67;;;2.78;;
67995;SDS011;54772;53.544;49.324;2023-12-29T10:13:05;3.35;;;2.47;;
67995;SDS011;54772;53.544;49.324;2023-12-29T10:16:08;4.22;;;2.33;;
67995;SDS011;54772;53.544;49.324;2023-12-29T10:19:10;3.60;;;2.70;;
67995;SDS011;54772;53.544;49.324;2023-12-29T10:22:48;3.45;;;2.45;;
67995;SDS011;54772;53.544;49.324;2023-12-29T10:25:39;3.92;;;2.75;;
67995;SDS011;54772;53.544;49.324;2023-12-29T10:28:26;4.47;;;2.75;;
67995;SDS011;54772;53.544;49.324;2023-12-29T10:31:14;3.70;;;2.70;;
67995;SDS011;54772;53.544;49.324;2023-12-29T10:40:07;3.10;;;2.00;;
67995;SDS011;54772;53.544;49.324;2023-12-29T10:45:42;3.85;;;2.28;;
67995;SDS011;54772;53.544;49.324;2023-12-29T10:48:29;2.67;;;1.92;;
67995;SDS011;54772;53.544;49.324;2023-12-29T10:51:16;4.28;;;2.85;;
67995;SDS011;54772;53.544;49.324;2023-12-29T10:54:20;3.87;;;3.00;;
67995;SDS011;54772;53.544;49.324;2023-12-29T10:57:11;5.20;;;2.95;;
67995;SDS011;54772;53.544;49.324;2023-12-29T10:59:59;3.33;;;2.53;;
67995;SDS011;54772;53.544;49.324;2023-12-29T11:02:53;3.75;;;2.65;;
67995;SDS011;54772;53.544;49.324;2023-12-29T11:05:40;4.50;;;2.83;;
67995;SDS011;54772;53.544;49.324;2023-12-29T11:08:27;4.60;;;2.92;;
67995;SDS011;54772;53.544;49.324;2023-12-29T11:11:14;4.32;;;2.97;;
67995;SDS011;54772;53.544;49.324;2023-12-29T11:14:01;4.18;;;2.90;;
67995;SDS011;54772;53.544;49.324;2023-12-29T11:16:49;4.53;;;3.03;;
67995;SDS011;54772;53.544;49.324;2023-12-29T11:19:37;2.17;;;1.08;;
67995;SDS011;54772;53.544;49.324;2023-12-29T11:22:26;5.65;;;3.35;;
67995;SDS011;54772;53.544;49.324;2023-12-29T11:25:17;4.22;;;2.85;;
67995;SDS011;54772;53.544;49.324;2023-12-29T11:28:05;3.83;;;2.62;;
67995;SDS011;54772;53.544;49.324;2023-12-29T11:30:54;4.78;;;3.42;;
67995;SDS011;54772;53.544;49.324;2023-12-29T11:33:41;4.60;;;3.15;;
67995;SDS011;54772;53.544;49.324;2023-12-29T11:36:32;5.00;;;3.28;;
67995;SDS011;54772;53.544;49.324;2023-12-29T11:42:14;5.20;;;3.20;;
67995;SDS011;54772;53.544;49.324;2023-12-29T11:45:50;6.35;;;3.47;;
67995;SDS011;54772;53.544;49.324;2023-12-29T11:51:42;4.87;;;3.30;;
67995;SDS011;54772;53.544;49.324;2023-12-29T11:54:29;5.82;;;3.80;;
67995;SDS011;54772;53.544;49.324;2023-12-29T11:57:30;5.20;;;3.70;;
67995;SDS011;54772;53.544;49.324;2023-12-29T12:00:17;6.40;;;3.97;;
67995;SDS011;54772;53.544;49.324;2023-12-29T12:03:13;5.35;;;3.62;;
67995;SDS011;54772;53.544;49.324;2023-12-29T12:06:00;5.37;;;3.75;;
67995;SDS011;54772;53.544;49.324;2023-12-29T12:08:48;5.75;;;3.85;;
67995;SDS011;54772;53.544;49.324;2023-12-29T12:17:34;6.37;;;4.35;;
67995;SDS011;54772;53.544;49.324;2023-12-29T12:20:22;5.72;;;3.83;;
67995;SDS011;54772;53.544;49.324;2023-12-29T12:23:10;5.43;;;3.95;;
67995;SDS011;54772;53.544;49.324;2023-12-29T12:26:02;6.28;;;4.25;;
67995;SDS011;54772;53.544;49.324;2023-12-29T12:28:52;6.05;;;3.62;;
67995;SDS011;54772;53.544;49.324;2023-12-29T12:31:55;5.65;;;3.47;;
67995;SDS011;54772;53.544;49.324;2023-12-29T12:34:42;8.00;;;4.20;;
67995;SDS011;54772;53.544;49.324;2023-12-29T12:37:29;7.53;;;4.37;;
67995;SDS011;54772;53.544;49.324;2023-12-29T12:43:15;6.20;;;4.15;;
67995;SDS011;54772;53.544;49.324;2023-12-29T12:46:02;7.72;;;4.93;;
67995;SDS011;54772;53.544;49.324;2023-12-29T12:48:49;8.45;;;4.97;;
67995;SDS011;54772;53.544;49.324;2023-12-29T12:51:36;7.40;;;4.43;;
67995;SDS011;54772;53.544;49.324;2023-12-29T12:54:23;7.22;;;4.80;;
67995;SDS011;54772;53.544;49.324;2023-12-29T12:57:10;6.53;;;3.78;;
67995;SDS011;54772;53.544;49.324;2023-12-29T13:02:34;5.78;;;3.90;;
67995;SDS011;54772;53.544;49.324;2023-12-29T13:05:21;6.75;;;4.10;;
67995;SDS011;54772;53.544;49.324;2023-12-29T13:08:08;6.90;;;4.40;;
67995;SDS011;54772;53.544;49.324;2023-12-29T13:11:09;6.72;;;4.35;;
67995;SDS011;54772;53.544;49.324;2023-12-29T13:14:00;5.97;;;3.87;;
67995;SDS011;54772;53.544;49.324;2023-12-29T13:16:47;6.57;;;4.05;;
67995;SDS011;54772;53.544;49.324;2023-12-29T13:19:34;7.75;;;3.90;;
67995;SDS011;54772;53.544;49.324;2023-12-29T13:22:21;5.82;;;3.45;;
67995;SDS011;54772;53.544;49.324;2023-12-29T13:25:09;6.45;;;4.28;;
67995;SDS011;54772;53.544;49.324;2023-12-29T13:27:57;6.25;;;4.03;;
67995;SDS011;54772;53.544;49.324;2023-12-29T13:30:44;6.28;;;4.40;;
67995;SDS011;54772;53.544;49.324;2023-12-29T13:33:37;7.45;;;4.57;;
67995;SDS011;54772;53.544;49.324;2023-12-29T13:42:53;6.62;;;4.47;;
67995;SDS011;54772;53.544;49.324;2023-12-29T13:45:43;5.87;;;4.37;;
67995;SDS011;54772;53.544;49.324;2023-12-29T13:48:30;8.07;;;4.87;;
67995;SDS011;54772;53.544;49.324;2023-12-29T13:51:17;6.62;;;4.43;;
67995;SDS011;54772;53.544;49.324;2023-12-29T13:54:11;7.25;;;4.80;;
67995;SDS011;54772;53.544;49.324;2023-12-29T13:57:01;7.00;;;4.22;;
67995;SDS011;54772;53.544;49.324;2023-12-29T13:59:45;7.65;;;4.93;;
67995;SDS011;54772;53.544;49.324;2023-12-29T14:02:34;7.28;;;4.37;;
67995;SDS011;54772;53.544;49.324;2023-12-29T14:05:31;7.50;;;4.70;;
67995;SDS011;54772;53.544;49.324;2023-12-29T14:11:27;8.00;;;4.70;;
67995;SDS011;54772;53.544;49.324;2023-12-29T14:14:24;7.97;;;4.55;;
67995;SDS011;54772;53.544;49.324;2023-12-29T14:17:19;7.77;;;5.17;;
67995;SDS011;54772;53.544;49.324;2023-12-29T14:20:07;7.00;;;4.60;;
67995;SDS011;54772;53.544;49.324;2023-12-29T14:23:01;6.78;;;4.78;;
67995;SDS011;54772;53.544;49.324;2023-12-29T14:25:48;7.25;;;4.55;;
67995;SDS011;54772;53.544;49.324;2023-12-29T14:28:35;7.00;;;4.62;;
67995;SDS011;54772;53.544;49.324;2023-12-29T14:31:22;7.57;;;4.68;;
67995;SDS011;54772;53.544;49.324;2023-12-29T14:36:55;7.05;;;5.00;;
67995;SDS011;54772;53.544;49.324;2023-12-29T14:39:46;8.00;;;4.68;;
67995;SDS011;54772;53.544;49.324;2023-12-29T14:42:36;7.07;;;4.70;;
67995;SDS011;54772;53.544;49.324;2023-12-29T14:45:25;7.30;;;5.10;;
67995;SDS011;54772;53.544;49.324;2023-12-29T14:48:14;6.95;;;4.07;;
67995;SDS011;54772;53.544;49.324;2023-12-29T14:51:01;7.70;;;4.82;;
67995;SDS011;54772;53.544;49.324;2023-12-29T14:53:49;5.82;;;4.12;;
67995;SDS011;54772;53.544;49.324;2023-12-29T14:56:36;7.20;;;4.37;;
67995;SDS011;54772;53.544;49.324;2023-12-29T14:59:23;7.43;;;4.65;;
67995;SDS011;54772;53.544;49.324;2023-12-29T15:02:10;6.90;;;4.40;;
67995;SDS011;54772;53.544;49.324;2023-12-29T15:04:55;7.45;;;4.55;;
67995;SDS011;54772;53.544;49.324;2023-12-29T15:07:40;8.05;;;5.20;;
67995;SDS011;54772;53.544;49.324;2023-12-29T15:10:27;7.00;;;4.47;;
67995;SDS011;54772;53.544;49.324;2023-12-29T15:13:10;6.40;;;4.82;;
67995;SDS011;54772;53.544;49.324;2023-12-29T15:15:58;7.28;;;4.70;;
67995;SDS011;54772;53.544;49.324;2023-12-29T15:18:45;7.47;;;4.30;;
67995;SDS011;54772;53.544;49.324;2023-12-29T15:21:32;7.35;;;4.65;;
67995;SDS011;54772;53.544;49.324;2023-12-29T15:24:19;7.43;;;4.78;;
67995;SDS011;54772;53.544;49.324;2023-12-29T15:27:07;7.65;;;4.95;;
67995;SDS011;54772;53.544;49.324;2023-12-29T15:29:53;6.22;;;4.40;;
67995;SDS011;54772;53.544;49.324;2023-12-29T15:32:40;6.00;;;4.32;;
67995;SDS011;54772;53.544;49.324;2023-12-29T15:35:27;6.47;;;4.30;;
67995;SDS011;54772;53.544;49.324;2023-12-29T15:38:17;6.00;;;4.10;;
67995;SDS011;54772;53.544;49.324;2023-12-29T15:41:04;6.72;;;3.83;;
67995;SDS011;54772;53.544;49.324;2023-12-29T15:43:51;6.55;;;3.80;;
67995;SDS011;54772;53.544;49.324;2023-12-29T15:46:38;6.37;;;4.05;;
67995;SDS011;54772;53.544;49.324;2023-12-29T15:49:24;8.23;;;4.47;;
67995;SDS011;54772;53.544;49.324;2023-12-29T15:52:11;8.13;;;4.68;;
67995;SDS011;54772;53.544;49.324;2023-12-29T15:54:57;6.45;;;4.32;;
67995;SDS011;54772;53.544;49.324;2023-12-29T15:57:44;6.78;;;3.97;;
67995;SDS011;54772;53.544;49.324;2023-12-29T16:00:31;7.32;;;4.70;;
67995;SDS011;54772;53.544;49.324;2023-12-29T16:03:20;6.30;;;3.95;;
67995;SDS011;54772;53.544;49.324;2023-12-29T16:06:06;8.25;;;4.45;;
67995;SDS011;54772;53.544;49.324;2023-12-29T16:08:53;5.43;;;3.83;;
67995;SDS011;54772;53.544;49.324;2023-12-29T16:11:41;7.35;;;4.40;;
67995;SDS011;54772;53.544;49.324;2023-12-29T16:14:28;5.75;;;4.20;;
67995;SDS011;54772;53.544;49.324;2023-12-29T16:17:15;5.78;;;3.62;;
67995;SDS011;54772;53.544;49.324;2023-12-29T16:20:07;7.07;;;4.37;;
67995;SDS011;54772;53.544;49.324;2023-12-29T16:22:55;6.03;;;3.78;;
67995;SDS011;54772;53.544;49.324;2023-12-29T16:25:42;5.72;;;3.42;;
67995;SDS011;54772;53.544;49.324;2023-12-29T16:28:28;6.90;;;4.12;;
67995;SDS011;54772;53.544;49.324;2023-12-29T16:31:16;6.12;;;3.65;;
67995;SDS011;54772;53.544;49.324;2023-12-29T16:34:00;5.57;;;3.50;;
67995;SDS011;54772;53.544;49.324;2023-12-29T16:36:55;5.62;;;3.53;;
67995;SDS011;54772;53.544;49.324;2023-12-29T16:39:43;4.93;;;3.17;;
67995;SDS011;54772;53.544;49.324;2023-12-29T16:42:29;5.53;;;3.40;;
67995;SDS011;54772;53.544;49.324;2023-12-29T16:45:16;4.90;;;2.90;;
67995;SDS011;54772;53.544;49.324;2023-12-29T16:48:03;5.45;;;3.22;;
67995;SDS011;54772;53.544;49.324;2023-12-29T16:50:50;5.10;;;3.40;;
67995;SDS011;54772;53.544;49.324;2023-12-29T16:53:37;5.15;;;3.20;;
67995;SDS011;54772;53.544;49.324;2023-12-29T16:56:24;4.72;;;3.12;;
67995;SDS011;54772;53.544;49.324;2023-12-29T16:59:11;6.53;;;3.40;;
67995;SDS011;54772;53.544;49.324;2023-12-29T17:01:59;5.28;;;3.03;;
67995;SDS011;54772;53.544;49.324;2023-12-29T17:04:52;4.28;;;3.03;;
67995;SDS011;54772;53.544;49.324;2023-12-29T17:07:39;4.70;;;2.97;;
67995;SDS011;54772;53.544;49.324;2023-12-29T17:10:26;5.20;;;3.20;;
67995;SDS011;54772;53.544;49.324;2023-12-29T17:13:13;4.90;;;3.17;;
67995;SDS011;54772;53.544;49.324;2023-12-29T17:16:00;5.65;;;3.60;;
67995;SDS011;54772;53.544;49.324;2023-12-29T17:18:49;4.70;;;2.97;;
67995;SDS011;54772;53.544;49.324;2023-12-29T17:21:35;5.00;;;3.37;;
67995;SDS011;54772;53.544;49.324;2023-12-29T17:27:09;5.40;;;3.78;;
67995;SDS011;54772;53.544;49.324;2023-12-29T17:29:56;6.20;;;3.53;;
67995;SDS011;54772;53.544;49.324;2023-12-29T17:32:42;5.65;;;3.50;;
67995;SDS011;54772;53.544;49.324;2023-12-29T17:35:30;4.57;;;2.83;;
67995;SDS011;54772;53.544;49.324;2023-12-29T17:38:16;5.87;;;3.65;;
67995;SDS011;54772;53.544;49.324;2023-12-29T17:41:04;7.15;;;3.70;;
67995;SDS011;54772;53.544;49.324;2023-12-29T17:43:50;5.65;;;3.50;;
67995;SDS011;54772;53.544;49.324;2023-12-29T17:46:38;5.68;;;3.42;;
67995;SDS011;54772;53.544;49.324;2023-12-29T17:49:24;6.53;;;3.47;;